sensor_id;sensor_type;location;lat;lon;timestamp;pressure;altitude;pressure_sealevel;temperature;humidity
60246;BME280;46107;53.356;-1.524;2023-09-19T00:01:28;97601.23;;;9.79;60.08
60246;BME280;46107;53.356;-1.524;2023-09-19T00:03:55;97607.01;;;10.66;57.96
60246;BME280;46107;53.356;-1.524;2023-09-19T00:06:22;97612.54;;;9.37;61.99
60246;BME280;46107;53.356;-1.524;2023-09-19T00:08:49;97606.99;;;10.80;58.69
60246;BME280;46107;53.356;-1.524;2023-09-19T00:11:17;97600.91;;;10.59;58.45
60246;BME280;46107;53.356;-1.524;2023-09-19T00:13:47;97595.56;;;10.64;58.27
60246;BME280;46107;53.356;-1.524;2023-09-19T00:16:15;97586.97;;;10.68;58.39
60246;BME280;46107;53.356;-1.524;2023-09-19T00:18:43;97594.63;;;10.37;59.66
60246;BME280;46107;53.356;-1.524;2023-09-19T00:21:11;97586.65;;;10.17;59.74
60246;BME280;46107;53.356;-1.524;2023-09-19T00:23:39;97576.16;;;10.74;57.97
60246;BME280;46107;53.356;-1.524;2023-09-19T00:26:07;97579.71;;;11.20;57.60
60246;BME280;46107;53.356;-1.524;2023-09-19T00:28:34;97576.38;;;10.83;57.16
60246;BME280;46107;53.356;-1.524;2023-09-19T00:31:02;97572.03;;;9.83;61.30
60246;BME280;46107;53.356;-1.524;2023-09-19T00:33:29;97564.59;;;11.12;57.32
60246;BME280;46107;53.356;-1.524;2023-09-19T00:35:57;97549.72;;;10.66;58.55
60246;BME280;46107;53.356;-1.524;2023-09-19T00:38:25;97552.94;;;10.17;60.57
60246;BME280;46107;53.356;-1.524;2023-09-19T00:40:53;97550.92;;;10.17;60.65
60246;BME280;46107;53.356;-1.524;2023-09-19T00:43:21;97549.93;;;10.81;58.94
60246;BME280;46107;53.356;-1.524;2023-09-19T00:45:50;97555.30;;;10.86;60.33
60246;BME280;46107;53.356;-1.524;2023-09-19T00:48:19;97547.23;;;10.77;60.15
60246;BME280;46107;53.356;-1.524;2023-09-19T00:50:48;97549.24;;;10.21;60.09
60246;BME280;46107;53.356;-1.524;2023-09-19T00:53:19;97548.95;;;10.14;61.55
60246;BME280;46107;53.356;-1.524;2023-09-19T00:55:47;97558.16;;;10.34;60.91
60246;BME280;46107;53.356;-1.524;2023-09-19T00:58:16;97573.09;;;11.16;59.21
60246;BME280;46107;53.356;-1.524;2023-09-19T01:00:44;97590.90;;;9.99;62.02
60246;BME280;46107;53.356;-1.524;2023-09-19T01:03:12;97585.33;;;10.29;61.23
60246;BME280;46107;53.356;-1.524;2023-09-19T01:05:40;97591.78;;;10.91;60.23
60246;BME280;46107;53.356;-1.524;2023-09-19T01:08:08;97595.78;;;11.06;59.28
60246;BME280;46107;53.356;-1.524;2023-09-19T01:10:36;97594.08;;;10.46;61.72
60246;BME280;46107;53.356;-1.524;2023-09-19T01:13:16;97589.80;;;10.89;60.90
60246;BME280;46107;53.356;-1.524;2023-09-19T01:15:55;97587.24;;;10.36;61.03
60246;BME280;46107;53.356;-1.524;2023-09-19T01:18:33;97584.49;;;10.33;61.55
60246;BME280;46107;53.356;-1.524;2023-09-19T01:21:08;97584.85;;;11.03;59.08
60246;BME280;46107;53.356;-1.524;2023-09-19T01:23:54;97579.95;;;10.70;59.86
60246;BME280;46107;53.356;-1.524;2023-09-19T01:26:51;97574.59;;;10.28;61.42
60246;BME280;46107;53.356;-1.524;2023-09-19T01:29:32;97577.14;;;11.39;58.82
60246;BME280;46107;53.356;-1.524;2023-09-19T01:32:04;97577.14;;;10.62;61.28
60246;BME280;46107;53.356;-1.524;2023-09-19T01:34:44;97584.50;;;9.97;62.61
60246;BME280;46107;53.356;-1.524;2023-09-19T01:37:13;97575.44;;;11.80;57.71
60246;BME280;46107;53.356;-1.524;2023-09-19T01:39:41;97578.73;;;10.34;62.20
60246;BME280;46107;53.356;-1.524;2023-09-19T01:42:20;97578.14;;;10.23;61.53
60246;BME280;46107;53.356;-1.524;2023-09-19T01:44:55;97579.55;;;11.13;59.89
60246;BME280;46107;53.356;-1.524;2023-09-19T01:47:31;97582.91;;;11.41;58.92
60246;BME280;46107;53.356;-1.524;2023-09-19T01:50:06;97582.42;;;10.56;60.62
60246;BME280;46107;53.356;-1.524;2023-09-19T01:52:43;97580.49;;;10.50;60.42
60246;BME280;46107;53.356;-1.524;2023-09-19T01:55:14;97577.86;;;11.40;58.31
60246;BME280;46107;53.356;-1.524;2023-09-19T01:57:51;97573.83;;;11.72;58.05
60246;BME280;46107;53.356;-1.524;2023-09-19T02:00:23;97577.01;;;10.84;58.56
60246;BME280;46107;53.356;-1.524;2023-09-19T02:02:51;97581.19;;;10.67;59.17
60246;BME280;46107;53.356;-1.524;2023-09-19T02:05:23;97577.99;;;10.69;59.41
60246;BME280;46107;53.356;-1.524;2023-09-19T02:07:52;97585.57;;;11.59;56.64
60246;BME280;46107;53.356;-1.524;2023-09-19T02:10:19;97576.67;;;11.89;57.09
60246;BME280;46107;53.356;-1.524;2023-09-19T02:12:47;97572.09;;;11.50;57.17
60246;BME280;46107;53.356;-1.524;2023-09-19T02:15:15;97566.36;;;9.81;60.56
60246;BME280;46107;53.356;-1.524;2023-09-19T02:17:43;97561.69;;;11.05;58.71
60246;BME280;46107;53.356;-1.524;2023-09-19T02:20:12;97560.12;;;10.81;57.78
60246;BME280;46107;53.356;-1.524;2023-09-19T02:22:40;97564.24;;;11.15;58.01
60246;BME280;46107;53.356;-1.524;2023-09-19T02:25:08;97555.48;;;11.75;57.06
60246;BME280;46107;53.356;-1.524;2023-09-19T02:27:36;97549.02;;;10.59;60.26
60246;BME280;46107;53.356;-1.524;2023-09-19T02:30:04;97550.31;;;10.53;59.47
60246;BME280;46107;53.356;-1.524;2023-09-19T02:32:32;97547.34;;;11.39;58.07
60246;BME280;46107;53.356;-1.524;2023-09-19T02:35:00;97544.06;;;10.47;59.30
60246;BME280;46107;53.356;-1.524;2023-09-19T02:37:27;97534.99;;;11.15;57.78
60246;BME280;46107;53.356;-1.524;2023-09-19T02:39:55;97537.86;;;10.85;59.12
60246;BME280;46107;53.356;-1.524;2023-09-19T02:42:23;97539.92;;;11.03;58.35
60246;BME280;46107;53.356;-1.524;2023-09-19T02:44:51;97537.49;;;11.37;58.10
60246;BME280;46107;53.356;-1.524;2023-09-19T02:47:19;97528.60;;;10.83;58.31
60246;BME280;46107;53.356;-1.524;2023-09-19T02:49:46;97520.91;;;10.94;60.01
60246;BME280;46107;53.356;-1.524;2023-09-19T02:52:14;97511.08;;;10.99;59.16
60246;BME280;46107;53.356;-1.524;2023-09-19T02:54:41;97513.82;;;10.54;61.28
60246;BME280;46107;53.356;-1.524;2023-09-19T02:57:09;97513.83;;;10.12;60.63
60246;BME280;46107;53.356;-1.524;2023-09-19T02:59:36;97511.67;;;10.09;61.21
60246;BME280;46107;53.356;-1.524;2023-09-19T03:02:04;97519.11;;;11.79;57.69
60246;BME280;46107;53.356;-1.524;2023-09-19T03:04:31;97519.38;;;9.78;62.11
60246;BME280;46107;53.356;-1.524;2023-09-19T03:06:59;97514.78;;;10.65;60.93
60246;BME280;46107;53.356;-1.524;2023-09-19T03:09:27;97517.90;;;9.99;63.07
60246;BME280;46107;53.356;-1.524;2023-09-19T03:11:54;97514.20;;;10.24;62.57
60246;BME280;46107;53.356;-1.524;2023-09-19T03:14:22;97517.65;;;10.54;61.77
60246;BME280;46107;53.356;-1.524;2023-09-19T03:16:49;97518.92;;;10.75;61.69
60246;BME280;46107;53.356;-1.524;2023-09-19T03:19:17;97517.75;;;9.67;64.56
60246;BME280;46107;53.356;-1.524;2023-09-19T03:21:47;97515.26;;;10.52;62.69
60246;BME280;46107;53.356;-1.524;2023-09-19T03:24:14;97518.73;;;10.56;62.22
60246;BME280;46107;53.356;-1.524;2023-09-19T03:26:42;97510.33;;;9.71;65.26
60246;BME280;46107;53.356;-1.524;2023-09-19T03:29:09;97502.50;;;9.84;66.17
60246;BME280;46107;53.356;-1.524;2023-09-19T03:31:37;97489.90;;;10.46;63.61
60246;BME280;46107;53.356;-1.524;2023-09-19T03:34:05;97479.02;;;9.93;64.09
60246;BME280;46107;53.356;-1.524;2023-09-19T03:36:32;97478.96;;;10.96;62.34
60246;BME280;46107;53.356;-1.524;2023-09-19T03:39:00;97482.17;;;11.37;60.38
60246;BME280;46107;53.356;-1.524;2023-09-19T03:41:28;97473.80;;;9.64;67.00
60246;BME280;46107;53.356;-1.524;2023-09-19T03:43:56;97475.20;;;11.16;62.96
60246;BME280;46107;53.356;-1.524;2023-09-19T03:46:24;97471.13;;;10.36;64.90
60246;BME280;46107;53.356;-1.524;2023-09-19T03:48:51;97472.24;;;10.71;64.12
60246;BME280;46107;53.356;-1.524;2023-09-19T03:51:19;97474.08;;;10.74;64.61
60246;BME280;46107;53.356;-1.524;2023-09-19T03:53:52;97463.01;;;11.04;63.97
60246;BME280;46107;53.356;-1.524;2023-09-19T03:56:19;97469.01;;;10.20;66.58
60246;BME280;46107;53.356;-1.524;2023-09-19T03:58:47;97467.18;;;10.91;65.02
60246;BME280;46107;53.356;-1.524;2023-09-19T04:01:15;97472.47;;;10.55;64.33
60246;BME280;46107;53.356;-1.524;2023-09-19T04:03:42;97474.27;;;11.93;60.16
60246;BME280;46107;53.356;-1.524;2023-09-19T04:06:10;97465.59;;;11.97;59.80
60246;BME280;46107;53.356;-1.524;2023-09-19T04:08:37;97448.75;;;9.92;64.23
60246;BME280;46107;53.356;-1.524;2023-09-19T04:11:05;97449.18;;;11.43;61.80
60246;BME280;46107;53.356;-1.524;2023-09-19T04:13:32;97444.76;;;10.83;63.51
60246;BME280;46107;53.356;-1.524;2023-09-19T04:15:59;97444.33;;;10.51;65.10
60246;BME280;46107;53.356;-1.524;2023-09-19T04:18:27;97449.02;;;10.28;66.01
60246;BME280;46107;53.356;-1.524;2023-09-19T04:20:54;97450.39;;;10.63;64.98
60246;BME280;46107;53.356;-1.524;2023-09-19T04:23:22;97449.08;;;10.25;66.22
60246;BME280;46107;53.356;-1.524;2023-09-19T04:25:49;97445.97;;;10.48;63.98
60246;BME280;46107;53.356;-1.524;2023-09-19T04:28:17;97447.09;;;9.23;68.69
60246;BME280;46107;53.356;-1.524;2023-09-19T04:30:44;97435.11;;;10.62;64.95
60246;BME280;46107;53.356;-1.524;2023-09-19T04:33:11;97430.96;;;10.04;66.21
60246;BME280;46107;53.356;-1.524;2023-09-19T04:35:39;97427.89;;;10.20;67.37
60246;BME280;46107;53.356;-1.524;2023-09-19T04:38:06;97416.77;;;10.23;67.86
60246;BME280;46107;53.356;-1.524;2023-09-19T04:40:33;97406.86;;;10.15;68.31
60246;BME280;46107;53.356;-1.524;2023-09-19T04:43:01;97400.95;;;10.53;67.33
60246;BME280;46107;53.356;-1.524;2023-09-19T04:45:29;97391.01;;;10.42;66.98
60246;BME280;46107;53.356;-1.524;2023-09-19T04:47:57;97380.53;;;10.23;69.45
60246;BME280;46107;53.356;-1.524;2023-09-19T04:50:24;97379.24;;;10.65;68.17
60246;BME280;46107;53.356;-1.524;2023-09-19T04:52:51;97370.93;;;11.56;66.07
60246;BME280;46107;53.356;-1.524;2023-09-19T04:55:20;97367.59;;;11.41;66.80
60246;BME280;46107;53.356;-1.524;2023-09-19T04:57:48;97358.18;;;11.03;68.29
60246;BME280;46107;53.356;-1.524;2023-09-19T05:00:18;97360.01;;;11.01;67.61
60246;BME280;46107;53.356;-1.524;2023-09-19T05:02:50;97354.07;;;10.15;70.72
60246;BME280;46107;53.356;-1.524;2023-09-19T05:05:17;97342.85;;;11.20;68.41
60246;BME280;46107;53.356;-1.524;2023-09-19T05:07:47;97334.97;;;10.04;72.17
60246;BME280;46107;53.356;-1.524;2023-09-19T05:10:15;97322.10;;;10.95;70.90
60246;BME280;46107;53.356;-1.524;2023-09-19T05:12:43;97316.66;;;10.15;71.76
60246;BME280;46107;53.356;-1.524;2023-09-19T05:15:10;97306.46;;;10.70;73.10
60246;BME280;46107;53.356;-1.524;2023-09-19T05:17:38;97297.60;;;9.62;75.98
60246;BME280;46107;53.356;-1.524;2023-09-19T05:20:05;97296.02;;;9.94;76.23
60246;BME280;46107;53.356;-1.524;2023-09-19T05:22:33;97291.21;;;9.23;78.07
60246;BME280;46107;53.356;-1.524;2023-09-19T05:25:01;97284.98;;;10.84;74.72
60246;BME280;46107;53.356;-1.524;2023-09-19T05:27:29;97273.13;;;10.47;76.38
60246;BME280;46107;53.356;-1.524;2023-09-19T05:29:56;97262.13;;;9.95;78.55
60246;BME280;46107;53.356;-1.524;2023-09-19T05:32:23;97250.32;;;10.06;77.67
60246;BME280;46107;53.356;-1.524;2023-09-19T05:34:51;97240.76;;;10.49;77.87
60246;BME280;46107;53.356;-1.524;2023-09-19T05:37:19;97232.41;;;9.18;85.32
60246;BME280;46107;53.356;-1.524;2023-09-19T05:39:47;97228.50;;;9.72;84.17
60246;BME280;46107;53.356;-1.524;2023-09-19T05:42:14;97219.50;;;9.35;85.17
60246;BME280;46107;53.356;-1.524;2023-09-19T05:44:41;97209.63;;;10.17;83.84
60246;BME280;46107;53.356;-1.524;2023-09-19T05:47:09;97199.68;;;9.38;85.00
60246;BME280;46107;53.356;-1.524;2023-09-19T05:49:36;97188.31;;;9.57;85.57
60246;BME280;46107;53.356;-1.524;2023-09-19T05:52:05;97183.36;;;9.26;87.41
60246;BME280;46107;53.356;-1.524;2023-09-19T05:54:32;97167.82;;;9.06;89.06
60246;BME280;46107;53.356;-1.524;2023-09-19T05:57:00;97164.25;;;9.28;89.28
60246;BME280;46107;53.356;-1.524;2023-09-19T05:59:28;97159.60;;;10.44;85.99
60246;BME280;46107;53.356;-1.524;2023-09-19T06:01:55;97157.29;;;9.64;88.00
60246;BME280;46107;53.356;-1.524;2023-09-19T06:04:23;97149.77;;;10.45;86.95
60246;BME280;46107;53.356;-1.524;2023-09-19T06:06:51;97144.68;;;9.68;90.42
60246;BME280;46107;53.356;-1.524;2023-09-19T06:09:19;97141.89;;;9.67;90.76
60246;BME280;46107;53.356;-1.524;2023-09-19T06:11:51;97152.08;;;9.45;91.45
60246;BME280;46107;53.356;-1.524;2023-09-19T06:14:18;97152.39;;;9.81;91.38
60246;BME280;46107;53.356;-1.524;2023-09-19T06:16:46;97151.27;;;9.65;91.63
60246;BME280;46107;53.356;-1.524;2023-09-19T06:19:14;97130.40;;;10.50;87.95
60246;BME280;46107;53.356;-1.524;2023-09-19T06:21:42;97126.11;;;10.29;88.31
60246;BME280;46107;53.356;-1.524;2023-09-19T06:24:09;97118.90;;;10.79;87.23
60246;BME280;46107;53.356;-1.524;2023-09-19T06:26:37;97120.61;;;9.82;91.28
60246;BME280;46107;53.356;-1.524;2023-09-19T06:29:04;97122.73;;;9.66;92.19
60246;BME280;46107;53.356;-1.524;2023-09-19T06:31:32;97119.14;;;9.73;93.40
60246;BME280;46107;53.356;-1.524;2023-09-19T06:33:59;97102.60;;;10.31;90.89
60246;BME280;46107;53.356;-1.524;2023-09-19T06:36:27;97112.18;;;9.69;93.14
60246;BME280;46107;53.356;-1.524;2023-09-19T06:38:53;97103.65;;;10.26;91.50
60246;BME280;46107;53.356;-1.524;2023-09-19T06:41:21;97097.96;;;9.92;93.49
60246;BME280;46107;53.356;-1.524;2023-09-19T06:43:49;97087.00;;;9.81;94.73
60246;BME280;46107;53.356;-1.524;2023-09-19T06:46:17;97078.94;;;10.70;92.16
60246;BME280;46107;53.356;-1.524;2023-09-19T06:48:46;97063.27;;;10.03;94.92
60246;BME280;46107;53.356;-1.524;2023-09-19T06:51:14;97062.24;;;9.86;95.06
60246;BME280;46107;53.356;-1.524;2023-09-19T06:53:42;97056.85;;;10.51;91.18
60246;BME280;46107;53.356;-1.524;2023-09-19T06:56:10;97050.58;;;11.29;89.81
60246;BME280;46107;53.356;-1.524;2023-09-19T06:58:38;97038.64;;;9.92;95.51
60246;BME280;46107;53.356;-1.524;2023-09-19T07:01:05;97031.02;;;10.59;92.25
60246;BME280;46107;53.356;-1.524;2023-09-19T07:03:32;97033.28;;;10.51;93.79
60246;BME280;46107;53.356;-1.524;2023-09-19T07:06:00;97025.98;;;9.64;97.51
60246;BME280;46107;53.356;-1.524;2023-09-19T07:08:28;97007.43;;;9.90;99.10
60246;BME280;46107;53.356;-1.524;2023-09-19T07:10:56;96993.54;;;10.48;94.90
60246;BME280;46107;53.356;-1.524;2023-09-19T07:13:24;97003.81;;;10.43;97.12
60246;BME280;46107;53.356;-1.524;2023-09-19T07:15:51;96991.64;;;10.10;99.53
60246;BME280;46107;53.356;-1.524;2023-09-19T07:18:18;96988.43;;;10.32;98.62
60246;BME280;46107;53.356;-1.524;2023-09-19T07:20:51;96975.34;;;10.69;97.38
60246;BME280;46107;53.356;-1.524;2023-09-19T07:23:20;96976.56;;;10.45;97.52
60246;BME280;46107;53.356;-1.524;2023-09-19T07:25:47;96969.78;;;10.78;98.90
60246;BME280;46107;53.356;-1.524;2023-09-19T07:28:15;96977.98;;;11.10;98.44
60246;BME280;46107;53.356;-1.524;2023-09-19T07:30:43;96984.56;;;10.36;100.00
60246;BME280;46107;53.356;-1.524;2023-09-19T07:33:11;96968.03;;;10.51;100.00
60246;BME280;46107;53.356;-1.524;2023-09-19T07:35:38;96965.21;;;10.28;100.00
60246;BME280;46107;53.356;-1.524;2023-09-19T07:38:06;96955.57;;;10.85;99.05
60246;BME280;46107;53.356;-1.524;2023-09-19T07:40:34;96969.06;;;11.94;93.57
60246;BME280;46107;53.356;-1.524;2023-09-19T07:43:01;96952.68;;;10.46;100.00
60246;BME280;46107;53.356;-1.524;2023-09-19T07:45:29;96952.59;;;10.93;99.71
60246;BME280;46107;53.356;-1.524;2023-09-19T07:47:57;96944.12;;;10.92;99.17
60246;BME280;46107;53.356;-1.524;2023-09-19T07:50:25;96953.41;;;11.61;98.74
60246;BME280;46107;53.356;-1.524;2023-09-19T07:52:53;96916.47;;;10.86;99.50
60246;BME280;46107;53.356;-1.524;2023-09-19T07:55:21;96930.72;;;10.69;100.00
60246;BME280;46107;53.356;-1.524;2023-09-19T07:57:49;96915.96;;;11.35;99.59
60246;BME280;46107;53.356;-1.524;2023-09-19T08:00:16;96893.75;;;10.92;99.96
60246;BME280;46107;53.356;-1.524;2023-09-19T08:02:44;96904.63;;;10.88;100.00
60246;BME280;46107;53.356;-1.524;2023-09-19T08:05:13;96903.64;;;10.69;100.00
60246;BME280;46107;53.356;-1.524;2023-09-19T08:07:41;96892.90;;;10.93;100.00
60246;BME280;46107;53.356;-1.524;2023-09-19T08:10:10;96882.53;;;10.81;100.00
60246;BME280;46107;53.356;-1.524;2023-09-19T08:12:37;96881.75;;;11.14;100.00
60246;BME280;46107;53.356;-1.524;2023-09-19T08:15:06;96879.25;;;11.43;100.00
60246;BME280;46107;53.356;-1.524;2023-09-19T08:17:34;96887.51;;;11.28;100.00
60246;BME280;46107;53.356;-1.524;2023-09-19T08:20:02;96885.12;;;11.09;100.00
60246;BME280;46107;53.356;-1.524;2023-09-19T08:22:29;96894.00;;;10.99;100.00
60246;BME280;46107;53.356;-1.524;2023-09-19T08:24:57;96901.34;;;11.89;99.36
60246;BME280;46107;53.356;-1.524;2023-09-19T08:27:25;96884.63;;;11.15;100.00
60246;BME280;46107;53.356;-1.524;2023-09-19T08:29:53;96901.41;;;11.15;100.00
60246;BME280;46107;53.356;-1.524;2023-09-19T08:32:21;96896.99;;;11.43;100.00
60246;BME280;46107;53.356;-1.524;2023-09-19T08:34:48;96900.59;;;11.28;100.00
60246;BME280;46107;53.356;-1.524;2023-09-19T08:37:16;96904.49;;;11.68;100.00
60246;BME280;46107;53.356;-1.524;2023-09-19T08:39:43;96890.86;;;11.66;100.00
60246;BME280;46107;53.356;-1.524;2023-09-19T08:42:10;96901.59;;;11.29;100.00
60246;BME280;46107;53.356;-1.524;2023-09-19T08:44:38;96904.15;;;11.97;100.00
60246;BME280;46107;53.356;-1.524;2023-09-19T08:47:09;96904.92;;;12.02;100.00
60246;BME280;46107;53.356;-1.524;2023-09-19T08:49:53;96915.64;;;11.55;100.00
60246;BME280;46107;53.356;-1.524;2023-09-19T08:52:25;96915.26;;;11.71;100.00
60246;BME280;46107;53.356;-1.524;2023-09-19T08:54:52;96912.08;;;11.88;100.00
60246;BME280;46107;53.356;-1.524;2023-09-19T08:57:25;96915.11;;;12.06;99.76
60246;BME280;46107;53.356;-1.524;2023-09-19T08:59:55;96934.06;;;12.30;99.37
60246;BME280;46107;53.356;-1.524;2023-09-19T09:02:24;96925.36;;;11.80;99.78
60246;BME280;46107;53.356;-1.524;2023-09-19T09:04:53;96927.57;;;12.02;100.00
60246;BME280;46107;53.356;-1.524;2023-09-19T09:07:22;96932.12;;;12.10;98.87
60246;BME280;46107;53.356;-1.524;2023-09-19T09:09:50;96936.75;;;11.93;99.96
60246;BME280;46107;53.356;-1.524;2023-09-19T09:12:18;96940.50;;;12.34;99.21
60246;BME280;46107;53.356;-1.524;2023-09-19T09:14:47;96941.34;;;12.30;99.90
60246;BME280;46107;53.356;-1.524;2023-09-19T09:17:15;96927.37;;;11.90;100.00
60246;BME280;46107;53.356;-1.524;2023-09-19T09:19:43;96924.04;;;12.89;98.00
60246;BME280;46107;53.356;-1.524;2023-09-19T09:22:11;96928.46;;;12.15;100.00
60246;BME280;46107;53.356;-1.524;2023-09-19T09:24:53;96919.28;;;12.84;98.17
60246;BME280;46107;53.356;-1.524;2023-09-19T09:27:21;96932.67;;;12.92;98.32
60246;BME280;46107;53.356;-1.524;2023-09-19T09:29:49;96926.13;;;12.88;97.23
60246;BME280;46107;53.356;-1.524;2023-09-19T09:32:18;96918.99;;;12.63;96.58
60246;BME280;46107;53.356;-1.524;2023-09-19T09:34:52;96919.81;;;12.44;100.00
60246;BME280;46107;53.356;-1.524;2023-09-19T09:37:22;96917.53;;;12.88;98.09
60246;BME280;46107;53.356;-1.524;2023-09-19T09:39:51;96914.31;;;13.85;92.16
60246;BME280;46107;53.356;-1.524;2023-09-19T09:42:30;96918.84;;;13.88;91.49
60246;BME280;46107;53.356;-1.524;2023-09-19T09:45:18;96917.37;;;13.14;92.37
60246;BME280;46107;53.356;-1.524;2023-09-19T09:47:48;96905.81;;;13.55;93.13
60246;BME280;46107;53.356;-1.524;2023-09-19T09:50:26;96907.60;;;13.64;93.00
60246;BME280;46107;53.356;-1.524;2023-09-19T09:52:54;96893.03;;;13.82;93.51
60246;BME280;46107;53.356;-1.524;2023-09-19T09:55:21;96889.39;;;13.00;97.42
60246;BME280;46107;53.356;-1.524;2023-09-19T09:58:16;96902.92;;;14.32;92.83
60246;BME280;46107;53.356;-1.524;2023-09-19T10:00:52;96926.20;;;14.57;88.75
60246;BME280;46107;53.356;-1.524;2023-09-19T10:03:20;96910.54;;;14.79;90.34
60246;BME280;46107;53.356;-1.524;2023-09-19T10:05:53;96901.03;;;14.22;92.63
60246;BME280;46107;53.356;-1.524;2023-09-19T10:08:21;96903.39;;;14.40;90.82
60246;BME280;46107;53.356;-1.524;2023-09-19T10:10:49;96897.86;;;14.76;89.33
60246;BME280;46107;53.356;-1.524;2023-09-19T10:13:16;96894.16;;;14.59;90.69
60246;BME280;46107;53.356;-1.524;2023-09-19T10:15:48;96916.26;;;14.25;91.98
60246;BME280;46107;53.356;-1.524;2023-09-19T10:18:18;96903.57;;;14.91;90.35
60246;BME280;46107;53.356;-1.524;2023-09-19T10:20:48;96906.49;;;14.72;91.50
60246;BME280;46107;53.356;-1.524;2023-09-19T10:23:18;96912.20;;;15.43;89.27
60246;BME280;46107;53.356;-1.524;2023-09-19T10:25:48;96912.77;;;15.63;87.99
60246;BME280;46107;53.356;-1.524;2023-09-19T10:28:17;96917.68;;;14.89;90.42
60246;BME280;46107;53.356;-1.524;2023-09-19T10:30:47;96903.66;;;15.84;87.84
60246;BME280;46107;53.356;-1.524;2023-09-19T10:33:17;96915.24;;;15.48;88.50
60246;BME280;46107;53.356;-1.524;2023-09-19T10:35:50;96909.34;;;14.85;90.50
60246;BME280;46107;53.356;-1.524;2023-09-19T10:38:19;96900.56;;;14.63;92.22
60246;BME280;46107;53.356;-1.524;2023-09-19T10:40:51;96918.63;;;15.14;92.20
60246;BME280;46107;53.356;-1.524;2023-09-19T10:43:21;96908.23;;;15.07;92.18
60246;BME280;46107;53.356;-1.524;2023-09-19T10:45:51;96909.92;;;15.90;90.26
60246;BME280;46107;53.356;-1.524;2023-09-19T10:48:21;96908.59;;;15.62;93.82
60246;BME280;46107;53.356;-1.524;2023-09-19T10:50:51;96895.41;;;16.39;85.81
60246;BME280;46107;53.356;-1.524;2023-09-19T10:53:20;96903.39;;;15.72;89.92
60246;BME280;46107;53.356;-1.524;2023-09-19T10:55:54;96910.80;;;16.42;88.35
60246;BME280;46107;53.356;-1.524;2023-09-19T10:58:27;96916.79;;;16.56;86.73
60246;BME280;46107;53.356;-1.524;2023-09-19T11:00:56;96907.55;;;15.31;88.17
60246;BME280;46107;53.356;-1.524;2023-09-19T11:03:24;96922.32;;;15.22;89.87
60246;BME280;46107;53.356;-1.524;2023-09-19T11:06:02;96919.77;;;16.26;86.42
60246;BME280;46107;53.356;-1.524;2023-09-19T11:08:31;96927.68;;;16.62;88.08
60246;BME280;46107;53.356;-1.524;2023-09-19T11:11:41;96928.51;;;16.40;89.06
60246;BME280;46107;53.356;-1.524;2023-09-19T11:14:15;96932.53;;;15.86;90.26
60246;BME280;46107;53.356;-1.524;2023-09-19T11:17:31;96928.65;;;15.95;91.37
60246;BME280;46107;53.356;-1.524;2023-09-19T11:20:31;96926.66;;;16.15;87.54
60246;BME280;46107;53.356;-1.524;2023-09-19T11:23:20;96935.58;;;16.08;86.88
60246;BME280;46107;53.356;-1.524;2023-09-19T11:25:48;96938.29;;;16.62;85.04
60246;BME280;46107;53.356;-1.524;2023-09-19T11:28:30;96937.98;;;16.26;86.26
60246;BME280;46107;53.356;-1.524;2023-09-19T11:30:58;96940.77;;;15.60;91.09
60246;BME280;46107;53.356;-1.524;2023-09-19T11:33:27;96952.59;;;15.68;89.78
60246;BME280;46107;53.356;-1.524;2023-09-19T11:36:03;96949.75;;;16.01;87.82
60246;BME280;46107;53.356;-1.524;2023-09-19T11:38:58;96951.01;;;15.80;90.64
60246;BME280;46107;53.356;-1.524;2023-09-19T11:41:41;96954.26;;;16.43;87.35
60246;BME280;46107;53.356;-1.524;2023-09-19T11:44:42;96946.91;;;15.79;87.73
60246;BME280;46107;53.356;-1.524;2023-09-19T11:47:11;96960.02;;;15.61;89.36
60246;BME280;46107;53.356;-1.524;2023-09-19T11:49:40;96958.41;;;16.08;88.59
60246;BME280;46107;53.356;-1.524;2023-09-19T11:52:08;96971.49;;;15.99;88.79
60246;BME280;46107;53.356;-1.524;2023-09-19T11:54:35;96957.47;;;16.41;86.39
60246;BME280;46107;53.356;-1.524;2023-09-19T11:57:04;96959.41;;;16.91;85.46
60246;BME280;46107;53.356;-1.524;2023-09-19T11:59:32;96956.00;;;16.62;85.62
60246;BME280;46107;53.356;-1.524;2023-09-19T12:02:03;96969.10;;;15.78;90.02
60246;BME280;46107;53.356;-1.524;2023-09-19T12:04:35;96981.28;;;17.02;85.51
60246;BME280;46107;53.356;-1.524;2023-09-19T12:07:03;96964.05;;;15.41;92.26
60246;BME280;46107;53.356;-1.524;2023-09-19T12:09:31;96981.50;;;16.69;87.60
60246;BME280;46107;53.356;-1.524;2023-09-19T12:11:58;96979.10;;;16.20;89.74
60246;BME280;46107;53.356;-1.524;2023-09-19T12:14:26;96993.02;;;15.80;89.27
60246;BME280;46107;53.356;-1.524;2023-09-19T12:16:56;96984.45;;;15.76;91.36
60246;BME280;46107;53.356;-1.524;2023-09-19T12:19:25;96992.84;;;15.81;91.03
60246;BME280;46107;53.356;-1.524;2023-09-19T12:21:56;96976.65;;;15.12;95.29
60246;BME280;46107;53.356;-1.524;2023-09-19T12:24:26;96981.95;;;15.88;92.66
60246;BME280;46107;53.356;-1.524;2023-09-19T12:26:54;96982.55;;;16.06;92.30
60246;BME280;46107;53.356;-1.524;2023-09-19T12:29:22;96989.30;;;15.13;96.10
60246;BME280;46107;53.356;-1.524;2023-09-19T12:31:51;96995.98;;;15.80;93.99
60246;BME280;46107;53.356;-1.524;2023-09-19T12:34:24;96994.78;;;15.72;94.16
60246;BME280;46107;53.356;-1.524;2023-09-19T12:37:04;96996.91;;;15.78;94.99
60246;BME280;46107;53.356;-1.524;2023-09-19T12:39:32;97000.52;;;15.48;94.80
60246;BME280;46107;53.356;-1.524;2023-09-19T12:42:00;97004.89;;;15.65;94.19
60246;BME280;46107;53.356;-1.524;2023-09-19T12:44:29;97005.22;;;15.53;93.46
60246;BME280;46107;53.356;-1.524;2023-09-19T12:46:57;97016.52;;;16.32;90.60
60246;BME280;46107;53.356;-1.524;2023-09-19T12:49:25;97021.81;;;16.01;89.45
60246;BME280;46107;53.356;-1.524;2023-09-19T12:51:55;97017.35;;;16.15;89.00
60246;BME280;46107;53.356;-1.524;2023-09-19T12:54:22;97019.73;;;16.95;83.98
60246;BME280;46107;53.356;-1.524;2023-09-19T12:56:50;97021.83;;;16.35;87.59
60246;BME280;46107;53.356;-1.524;2023-09-19T12:59:18;97028.32;;;17.33;83.13
60246;BME280;46107;53.356;-1.524;2023-09-19T13:02:04;97014.74;;;16.26;87.77
60246;BME280;46107;53.356;-1.524;2023-09-19T13:04:32;97011.15;;;16.78;84.52